sensor_id;sensor_type;location;lat;lon;timestamp;pressure;altitude;pressure_sealevel;temperature;humidity
43488;BME280;29078;41.932;25.554;2022-08-19T00:02:07;99016.56;;;28.14;36.01
43488;BME280;29078;41.932;25.554;2022-08-19T00:04:34;99021.22;;;28.13;36.74
43488;BME280;29078;41.932;25.554;2022-08-19T00:07:02;99019.72;;;28.07;36.44
43488;BME280;29078;41.932;25.554;2022-08-19T00:09:28;99020.03;;;28.06;36.10
43488;BME280;29078;41.932;25.554;2022-08-19T00:11:53;99024.06;;;27.95;36.51
43488;BME280;29078;41.932;25.554;2022-08-19T00:14:20;99011.91;;;27.92;37.27
43488;BME280;29078;41.932;25.554;2022-08-19T00:16:47;99015.44;;;27.93;37.39
43488;BME280;29078;41.932;25.554;2022-08-19T00:19:13;99014.31;;;27.94;37.67
43488;BME280;29078;41.932;25.554;2022-08-19T00:21:38;99020.75;;;27.98;36.69
43488;BME280;29078;41.932;25.554;2022-08-19T00:24:05;99022.72;;;28.06;36.97
43488;BME280;29078;41.932;25.554;2022-08-19T00:26:30;99024.84;;;28.09;37.62
43488;BME280;29078;41.932;25.554;2022-08-19T00:28:56;99023.13;;;28.13;38.16
43488;BME280;29078;41.932;25.554;2022-08-19T00:31:21;99019.91;;;28.11;37.92
43488;BME280;29078;41.932;25.554;2022-08-19T00:33:47;99023.91;;;28.13;37.38
43488;BME280;29078;41.932;25.554;2022-08-19T00:36:15;99014.97;;;28.13;37.94
43488;BME280;29078;41.932;25.554;2022-08-19T00:38:40;99018.78;;;28.12;38.55
43488;BME280;29078;41.932;25.554;2022-08-19T00:41:08;99021.81;;;28.10;38.20
43488;BME280;29078;41.932;25.554;2022-08-19T00:43:33;99018.59;;;28.08;38.49
43488;BME280;29078;41.932;25.554;2022-08-19T00:45:59;99022.25;;;28.04;39.20
43488;BME280;29078;41.932;25.554;2022-08-19T00:48:24;99015.69;;;28.05;39.71
43488;BME280;29078;41.932;25.554;2022-08-19T00:50:50;99014.41;;;28.02;38.82
43488;BME280;29078;41.932;25.554;2022-08-19T00:53:19;99018.22;;;28.01;39.33
43488;BME280;29078;41.932;25.554;2022-08-19T00:55:46;99015.31;;;27.98;40.08
43488;BME280;29078;41.932;25.554;2022-08-19T00:58:13;99014.50;;;27.97;38.27
43488;BME280;29078;41.932;25.554;2022-08-19T01:00:40;99024.88;;;27.95;39.17
43488;BME280;29078;41.932;25.554;2022-08-19T01:03:06;99015.44;;;27.93;39.64
43488;BME280;29078;41.932;25.554;2022-08-19T01:05:32;99011.00;;;27.97;38.49
43488;BME280;29078;41.932;25.554;2022-08-19T01:07:58;99018.34;;;27.96;39.48
43488;BME280;29078;41.932;25.554;2022-08-19T01:10:25;99028.19;;;27.92;39.48
43488;BME280;29078;41.932;25.554;2022-08-19T01:12:51;99016.16;;;27.84;40.88
43488;BME280;29078;41.932;25.554;2022-08-19T01:15:18;99015.06;;;27.72;40.58
43488;BME280;29078;41.932;25.554;2022-08-19T01:17:45;99011.16;;;27.64;40.29
43488;BME280;29078;41.932;25.554;2022-08-19T01:20:16;99011.75;;;27.61;39.23
43488;BME280;29078;41.932;25.554;2022-08-19T01:22:46;99015.34;;;27.57;41.06
43488;BME280;29078;41.932;25.554;2022-08-19T01:25:13;99014.84;;;27.54;39.62
43488;BME280;29078;41.932;25.554;2022-08-19T01:27:42;99015.84;;;27.45;40.02
43488;BME280;29078;41.932;25.554;2022-08-19T01:30:08;99014.53;;;27.42;39.99
43488;BME280;29078;41.932;25.554;2022-08-19T01:32:34;99017.53;;;27.41;40.52
43488;BME280;29078;41.932;25.554;2022-08-19T01:35:00;99013.22;;;27.40;40.64
43488;BME280;29078;41.932;25.554;2022-08-19T01:37:26;99013.22;;;27.40;39.95
43488;BME280;29078;41.932;25.554;2022-08-19T01:39:52;99011.91;;;27.37;40.09
43488;BME280;29078;41.932;25.554;2022-08-19T01:42:18;99021.16;;;27.36;38.72
43488;BME280;29078;41.932;25.554;2022-08-19T01:44:44;99021.06;;;27.28;39.73
43488;BME280;29078;41.932;25.554;2022-08-19T01:47:10;99016.84;;;27.21;40.15
43488;BME280;29078;41.932;25.554;2022-08-19T01:49:36;99016.94;;;27.16;40.49
43488;BME280;29078;41.932;25.554;2022-08-19T01:52:01;99020.22;;;27.13;41.39
43488;BME280;29078;41.932;25.554;2022-08-19T01:54:27;99010.59;;;27.07;41.54
43488;BME280;29078;41.932;25.554;2022-08-19T01:56:53;99014.50;;;27.01;41.67
43488;BME280;29078;41.932;25.554;2022-08-19T01:59:20;99014.81;;;27.00;39.94
43488;BME280;29078;41.932;25.554;2022-08-19T02:01:47;99011.28;;;26.99;40.27
43488;BME280;29078;41.932;25.554;2022-08-19T02:04:13;99016.75;;;26.94;41.23
43488;BME280;29078;41.932;25.554;2022-08-19T02:06:39;99016.47;;;26.96;41.32
43488;BME280;29078;41.932;25.554;2022-08-19T02:09:05;99021.09;;;26.95;40.93
43488;BME280;29078;41.932;25.554;2022-08-19T02:11:32;99015.75;;;26.90;41.57
43488;BME280;29078;41.932;25.554;2022-08-19T02:13:59;99020.16;;;26.86;41.71
43488;BME280;29078;41.932;25.554;2022-08-19T02:16:24;99032.09;;;26.85;40.93
43488;BME280;29078;41.932;25.554;2022-08-19T02:18:49;99035.75;;;26.75;41.60
43488;BME280;29078;41.932;25.554;2022-08-19T02:21:19;99026.41;;;26.68;42.26
43488;BME280;29078;41.932;25.554;2022-08-19T02:23:45;99035.63;;;26.67;41.54
43488;BME280;29078;41.932;25.554;2022-08-19T02:26:11;99035.03;;;26.70;41.71
43488;BME280;29078;41.932;25.554;2022-08-19T02:28:37;99042.66;;;26.68;40.89
43488;BME280;29078;41.932;25.554;2022-08-19T02:31:03;99036.81;;;26.60;41.45
43488;BME280;29078;41.932;25.554;2022-08-19T02:33:28;99040.63;;;26.59;42.44
43488;BME280;29078;41.932;25.554;2022-08-19T02:35:54;99045.81;;;26.56;43.14
43488;BME280;29078;41.932;25.554;2022-08-19T02:38:19;99048.31;;;26.52;43.05
43488;BME280;29078;41.932;25.554;2022-08-19T02:40:52;99051.91;;;26.48;42.09
43488;BME280;29078;41.932;25.554;2022-08-19T02:43:18;99050.38;;;26.42;42.76
43488;BME280;29078;41.932;25.554;2022-08-19T02:45:45;99057.91;;;26.45;41.69
43488;BME280;29078;41.932;25.554;2022-08-19T02:48:10;99060.31;;;26.46;42.03
43488;BME280;29078;41.932;25.554;2022-08-19T02:50:39;99065.16;;;26.49;42.49
43488;BME280;29078;41.932;25.554;2022-08-19T02:53:05;99062.94;;;26.51;42.64
43488;BME280;29078;41.932;25.554;2022-08-19T02:55:32;99076.78;;;26.50;43.12
43488;BME280;29078;41.932;25.554;2022-08-19T02:57:57;99063.31;;;26.45;43.45
43488;BME280;29078;41.932;25.554;2022-08-19T03:00:22;99074.72;;;26.42;42.32
43488;BME280;29078;41.932;25.554;2022-08-19T03:02:49;99074.50;;;26.38;42.07
43488;BME280;29078;41.932;25.554;2022-08-19T03:05:14;99077.56;;;26.32;42.22
43488;BME280;29078;41.932;25.554;2022-08-19T03:07:39;99085.97;;;26.30;42.86
43488;BME280;29078;41.932;25.554;2022-08-19T03:10:05;99085.75;;;26.26;43.33
43488;BME280;29078;41.932;25.554;2022-08-19T03:12:31;99083.84;;;26.27;43.57
43488;BME280;29078;41.932;25.554;2022-08-19T03:14:59;99074.94;;;26.26;43.33
43488;BME280;29078;41.932;25.554;2022-08-19T03:17:25;99084.94;;;26.26;42.74
43488;BME280;29078;41.932;25.554;2022-08-19T03:19:50;99079.59;;;26.21;43.45
43488;BME280;29078;41.932;25.554;2022-08-19T03:22:16;99086.34;;;26.23;42.77
43488;BME280;29078;41.932;25.554;2022-08-19T03:24:41;99081.66;;;26.29;41.60
43488;BME280;29078;41.932;25.554;2022-08-19T03:27:07;99085.47;;;26.28;43.60
43488;BME280;29078;41.932;25.554;2022-08-19T03:29:32;99096.56;;;26.26;43.48
43488;BME280;29078;41.932;25.554;2022-08-19T03:31:59;99099.06;;;26.23;42.50
43488;BME280;29078;41.932;25.554;2022-08-19T03:34:27;99096.13;;;26.19;43.34
43488;BME280;29078;41.932;25.554;2022-08-19T03:36:54;99099.72;;;26.15;43.45
43488;BME280;29078;41.932;25.554;2022-08-19T03:39:19;99096.13;;;26.19;43.07
43488;BME280;29078;41.932;25.554;2022-08-19T03:41:45;99105.06;;;26.20;43.65
43488;BME280;29078;41.932;25.554;2022-08-19T03:44:15;99102.63;;;26.18;44.11
43488;BME280;29078;41.932;25.554;2022-08-19T03:46:42;99116.41;;;26.22;42.92
43488;BME280;29078;41.932;25.554;2022-08-19T03:49:08;99114.28;;;26.19;44.65
43488;BME280;29078;41.932;25.554;2022-08-19T03:51:34;99121.88;;;26.17;44.85
43488;BME280;29078;41.932;25.554;2022-08-19T03:54:01;99111.06;;;26.17;44.84
43488;BME280;29078;41.932;25.554;2022-08-19T03:56:27;99115.88;;;26.20;42.60
43488;BME280;29078;41.932;25.554;2022-08-19T03:58:53;99116.97;;;26.19;42.16
43488;BME280;29078;41.932;25.554;2022-08-19T04:01:19;99117.69;;;26.06;45.63
43488;BME280;29078;41.932;25.554;2022-08-19T04:03:45;99115.56;;;26.03;44.23
43488;BME280;29078;41.932;25.554;2022-08-19T04:06:21;99116.66;;;26.02;43.65
43488;BME280;29078;41.932;25.554;2022-08-19T04:08:47;99123.97;;;26.01;43.80
43488;BME280;29078;41.932;25.554;2022-08-19T04:11:16;99127.47;;;26.02;43.92
43488;BME280;29078;41.932;25.554;2022-08-19T04:13:41;99128.84;;;25.99;44.51
43488;BME280;29078;41.932;25.554;2022-08-19T04:16:09;99126.69;;;26.01;44.07
43488;BME280;29078;41.932;25.554;2022-08-19T04:18:35;99131.00;;;26.02;44.42
43488;BME280;29078;41.932;25.554;2022-08-19T04:21:00;99135.59;;;26.02;45.26
43488;BME280;29078;41.932;25.554;2022-08-19T04:23:26;99131.31;;;25.95;45.09
43488;BME280;29078;41.932;25.554;2022-08-19T04:25:53;99127.69;;;25.81;45.11
43488;BME280;29078;41.932;25.554;2022-08-19T04:28:18;99130.44;;;25.76;45.88
43488;BME280;29078;41.932;25.554;2022-08-19T04:30:50;99136.31;;;25.83;45.22
43488;BME280;29078;41.932;25.554;2022-08-19T04:33:17;99127.28;;;25.93;44.92
43488;BME280;29078;41.932;25.554;2022-08-19T04:35:44;99131.25;;;26.01;43.99
43488;BME280;29078;41.932;25.554;2022-08-19T04:38:10;99129.59;;;26.05;44.31
43488;BME280;29078;41.932;25.554;2022-08-19T04:40:43;99133.94;;;26.06;43.85
43488;BME280;29078;41.932;25.554;2022-08-19T04:43:27;99131.44;;;26.09;43.36
43488;BME280;29078;41.932;25.554;2022-08-19T04:45:53;99128.16;;;26.12;44.25
43488;BME280;29078;41.932;25.554;2022-08-19T04:48:18;99135.13;;;26.18;44.46
43488;BME280;29078;41.932;25.554;2022-08-19T04:50:54;99128.91;;;26.18;44.58
43488;BME280;29078;41.932;25.554;2022-08-19T04:53:32;99130.22;;;26.20;43.71
43488;BME280;29078;41.932;25.554;2022-08-19T04:55:58;99125.63;;;26.21;44.31
43488;BME280;29078;41.932;25.554;2022-08-19T04:58:24;99125.31;;;26.22;43.49
43488;BME280;29078;41.932;25.554;2022-08-19T05:00:49;99132.28;;;26.28;44.58
43488;BME280;29078;41.932;25.554;2022-08-19T05:03:15;99131.94;;;26.35;44.69
43488;BME280;29078;41.932;25.554;2022-08-19T05:05:42;99134.00;;;26.43;43.60
43488;BME280;29078;41.932;25.554;2022-08-19T05:08:07;99129.63;;;26.47;44.04
43488;BME280;29078;41.932;25.554;2022-08-19T05:10:36;99128.44;;;26.53;43.80
43488;BME280;29078;41.932;25.554;2022-08-19T05:13:02;99122.94;;;26.58;43.45
43488;BME280;29078;41.932;25.554;2022-08-19T05:15:27;99127.69;;;26.67;44.29
43488;BME280;29078;41.932;25.554;2022-08-19T05:17:53;99125.97;;;26.76;43.73
43488;BME280;29078;41.932;25.554;2022-08-19T05:20:40;99134.44;;;26.88;43.42
43488;BME280;29078;41.932;25.554;2022-08-19T05:23:24;99133.25;;;26.94;43.78
43488;BME280;29078;41.932;25.554;2022-08-19T05:25:52;99129.41;;;27.00;44.24
43488;BME280;29078;41.932;25.554;2022-08-19T05:28:18;99127.41;;;27.06;44.70
43488;BME280;29078;41.932;25.554;2022-08-19T05:30:44;99123.81;;;27.10;43.72
43488;BME280;29078;41.932;25.554;2022-08-19T05:33:10;99133.47;;;27.16;43.71
43488;BME280;29078;41.932;25.554;2022-08-19T05:35:36;99126.06;;;27.22;43.85
43488;BME280;29078;41.932;25.554;2022-08-19T05:38:02;99127.56;;;27.28;43.73
43488;BME280;29078;41.932;25.554;2022-08-19T05:40:27;99128.38;;;27.29;44.72
43488;BME280;29078;41.932;25.554;2022-08-19T05:42:53;99122.06;;;27.33;44.56
43488;BME280;29078;41.932;25.554;2022-08-19T05:45:18;99125.50;;;27.39;44.14
43488;BME280;29078;41.932;25.554;2022-08-19T05:47:44;99138.84;;;27.49;44.02
43488;BME280;29078;41.932;25.554;2022-08-19T05:50:10;99132.56;;;27.53;43.93
43488;BME280;29078;41.932;25.554;2022-08-19T05:52:36;99136.59;;;27.56;44.00
43488;BME280;29078;41.932;25.554;2022-08-19T05:55:03;99135.41;;;27.62;44.41
43488;BME280;29078;41.932;25.554;2022-08-19T05:57:28;99135.13;;;27.64;44.35
43488;BME280;29078;41.932;25.554;2022-08-19T05:59:53;99136.63;;;27.70;43.58
43488;BME280;29078;41.932;25.554;2022-08-19T06:02:19;99140.56;;;27.77;43.27
43488;BME280;29078;41.932;25.554;2022-08-19T06:04:45;99151.00;;;27.84;44.26
43488;BME280;29078;41.932;25.554;2022-08-19T06:07:10;99152.81;;;27.89;43.09
43488;BME280;29078;41.932;25.554;2022-08-19T06:09:35;99145.97;;;27.91;43.22
43488;BME280;29078;41.932;25.554;2022-08-19T06:12:02;99148.09;;;27.94;43.57
43488;BME280;29078;41.932;25.554;2022-08-19T06:14:30;99147.69;;;28.01;43.86
43488;BME280;29078;41.932;25.554;2022-08-19T06:16:56;99148.38;;;28.06;42.96
43488;BME280;29078;41.932;25.554;2022-08-19T06:19:22;99152.91;;;28.11;43.16
43488;BME280;29078;41.932;25.554;2022-08-19T06:21:49;99157.63;;;28.19;43.16
43488;BME280;29078;41.932;25.554;2022-08-19T06:24:18;99154.31;;;28.22;43.41
43488;BME280;29078;41.932;25.554;2022-08-19T06:26:44;99158.06;;;28.26;43.14
43488;BME280;29078;41.932;25.554;2022-08-19T06:29:12;99160.38;;;28.33;42.61
43488;BME280;29078;41.932;25.554;2022-08-19T06:31:40;99155.03;;;28.41;42.90
43488;BME280;29078;41.932;25.554;2022-08-19T06:34:06;99157.03;;;28.50;42.36
43488;BME280;29078;41.932;25.554;2022-08-19T06:36:35;99162.66;;;28.53;42.44
43488;BME280;29078;41.932;25.554;2022-08-19T06:39:03;99161.13;;;28.61;42.13
43488;BME280;29078;41.932;25.554;2022-08-19T06:41:29;99158.28;;;28.66;42.20
43488;BME280;29078;41.932;25.554;2022-08-19T06:43:55;99164.91;;;28.73;42.63
43488;BME280;29078;41.932;25.554;2022-08-19T06:46:20;99175.03;;;28.82;41.82
43488;BME280;29078;41.932;25.554;2022-08-19T06:48:46;99163.59;;;28.85;42.46
43488;BME280;29078;41.932;25.554;2022-08-19T06:51:12;99154.22;;;28.91;41.56
43488;BME280;29078;41.932;25.554;2022-08-19T06:53:40;99164.66;;;28.97;41.90
43488;BME280;29078;41.932;25.554;2022-08-19T06:56:06;99164.44;;;29.07;41.84
43488;BME280;29078;41.932;25.554;2022-08-19T06:58:31;99165.59;;;29.15;41.71
43488;BME280;29078;41.932;25.554;2022-08-19T07:01:06;99162.44;;;29.22;41.18
43488;BME280;29078;41.932;25.554;2022-08-19T07:03:32;99159.78;;;29.30;40.93
43488;BME280;29078;41.932;25.554;2022-08-19T07:06:06;99162.69;;;29.34;40.80
43488;BME280;29078;41.932;25.554;2022-08-19T07:08:32;99168.00;;;29.39;40.97
43488;BME280;29078;41.932;25.554;2022-08-19T07:10:57;99170.00;;;29.47;40.83
43488;BME280;29078;41.932;25.554;2022-08-19T07:13:23;99160.59;;;29.53;40.61
43488;BME280;29078;41.932;25.554;2022-08-19T07:15:48;99157.72;;;29.58;40.66
43488;BME280;29078;41.932;25.554;2022-08-19T07:18:15;99079.06;;;29.08;40.05
43488;BME280;29078;41.932;25.554;2022-08-19T07:20:41;99158.41;;;29.64;40.17
43488;BME280;29078;41.932;25.554;2022-08-19T07:23:08;99149.19;;;29.73;40.44
43488;BME280;29078;41.932;25.554;2022-08-19T07:25:33;99148.72;;;29.80;40.21
43488;BME280;29078;41.932;25.554;2022-08-19T07:28:00;99150.38;;;29.90;40.00
43488;BME280;29078;41.932;25.554;2022-08-19T07:30:26;99150.88;;;30.00;40.08
43488;BME280;29078;41.932;25.554;2022-08-19T07:32:51;99147.25;;;30.05;39.18
43488;BME280;29078;41.932;25.554;2022-08-19T07:35:17;99151.75;;;30.10;39.60
43488;BME280;29078;41.932;25.554;2022-08-19T07:37:44;99153.50;;;30.14;39.54
43488;BME280;29078;41.932;25.554;2022-08-19T07:40:09;99151.13;;;30.21;39.04
43488;BME280;29078;41.932;25.554;2022-08-19T07:42:35;99157.53;;;30.25;38.87
43488;BME280;29078;41.932;25.554;2022-08-19T07:45:00;99145.84;;;30.33;39.20
43488;BME280;29078;41.932;25.554;2022-08-19T07:47:26;99157.09;;;30.41;39.83
43488;BME280;29078;41.932;25.554;2022-08-19T07:49:53;99145.09;;;30.50;38.90
43488;BME280;29078;41.932;25.554;2022-08-19T07:52:18;99149.28;;;30.56;39.18
43488;BME280;29078;41.932;25.554;2022-08-19T07:54:43;99147.72;;;30.64;38.19
43488;BME280;29078;41.932;25.554;2022-08-19T07:57:09;99146.59;;;30.74;38.79
43488;BME280;29078;41.932;25.554;2022-08-19T07:59:34;99144.50;;;30.79;38.28
43488;BME280;29078;41.932;25.554;2022-08-19T08:02:00;99150.28;;;30.86;38.18
43488;BME280;29078;41.932;25.554;2022-08-19T08:04:26;99143.53;;;30.92;37.99
43488;BME280;29078;41.932;25.554;2022-08-19T08:07:09;99141.13;;;30.99;37.71
43488;BME280;29078;41.932;25.554;2022-08-19T08:09:53;99140.78;;;31.10;37.61
43488;BME280;29078;41.932;25.554;2022-08-19T08:12:20;99141.59;;;31.19;37.90
43488;BME280;29078;41.932;25.554;2022-08-19T08:14:49;99141.75;;;31.31;37.46
43488;BME280;29078;41.932;25.554;2022-08-19T08:17:15;99133.22;;;31.41;37.44
43488;BME280;29078;41.932;25.554;2022-08-19T08:19:41;99139.47;;;31.50;36.61
43488;BME280;29078;41.932;25.554;2022-08-19T08:22:07;99136.03;;;31.62;36.80
43488;BME280;29078;41.932;25.554;2022-08-19T08:24:33;99136.03;;;31.71;36.77
43488;BME280;29078;41.932;25.554;2022-08-19T08:27:00;99139.19;;;31.81;36.37
43488;BME280;29078;41.932;25.554;2022-08-19T08:29:26;99132.09;;;31.89;36.24
43488;BME280;29078;41.932;25.554;2022-08-19T08:31:52;99137.53;;;31.98;36.13
43488;BME280;29078;41.932;25.554;2022-08-19T08:34:18;99132.38;;;32.05;35.76
43488;BME280;29078;41.932;25.554;2022-08-19T08:36:44;99135.50;;;32.15;35.91
43488;BME280;29078;41.932;25.554;2022-08-19T08:39:14;99132.91;;;32.28;35.21
43488;BME280;29078;41.932;25.554;2022-08-19T08:44:06;99128.09;;;32.45;34.95
43488;BME280;29078;41.932;25.554;2022-08-19T08:51:43;99125.78;;;32.56;34.46
43488;BME280;29078;41.932;25.554;2022-08-19T08:54:12;99125.47;;;32.78;34.54
43488;BME280;29078;41.932;25.554;2022-08-19T08:56:38;99112.09;;;32.98;33.56
43488;BME280;29078;41.932;25.554;2022-08-19T08:59:12;99111.59;;;33.16;33.60
43488;BME280;29078;41.932;25.554;2022-08-19T09:01:42;99120.22;;;33.39;33.57
43488;BME280;29078;41.932;25.554;2022-08-19T09:04:07;99115.03;;;33.59;32.37
43488;BME280;29078;41.932;25.554;2022-08-19T09:09:31;99106.50;;;33.85;32.61
43488;BME280;29078;41.932;25.554;2022-08-19T09:14:36;99112.44;;;34.23;32.67
43488;BME280;29078;41.932;25.554;2022-08-19T09:17:06;99102.25;;;34.36;31.78
43488;BME280;29078;41.932;25.554;2022-08-19T09:19:33;99101.53;;;34.51;31.76
43488;BME280;29078;41.932;25.554;2022-08-19T09:21:59;99103.72;;;34.73;31.07
43488;BME280;29078;41.932;25.554;2022-08-19T09:24:25;99101.06;;;34.89;30.40
43488;BME280;29078;41.932;25.554;2022-08-19T09:26:50;99099.19;;;35.06;31.13
43488;BME280;29078;41.932;25.554;2022-08-19T09:29:16;99093.72;;;35.21;30.91
43488;BME280;29078;41.932;25.554;2022-08-19T09:31:41;99099.59;;;35.35;30.68
43488;BME280;29078;41.932;25.554;2022-08-19T09:34:06;99101.81;;;35.46;28.71
43488;BME280;29078;41.932;25.554;2022-08-19T09:36:32;99098.53;;;35.40;29.47
43488;BME280;29078;41.932;25.554;2022-08-19T09:39:04;99094.97;;;35.55;27.67
43488;BME280;29078;41.932;25.554;2022-08-19T09:41:29;99090.66;;;35.70;28.76
43488;BME280;29078;41.932;25.554;2022-08-19T09:43:56;99091.63;;;35.93;28.64
43488;BME280;29078;41.932;25.554;2022-08-19T09:46:22;99086.13;;;35.93;28.64
43488;BME280;29078;41.932;25.554;2022-08-19T09:48:48;99078.72;;;36.13;28.53
43488;BME280;29078;41.932;25.554;2022-08-19T09:51:16;99078.69;;;36.29;27.83
43488;BME280;29078;41.932;25.554;2022-08-19T09:53:45;99083.38;;;36.44;28.39
43488;BME280;29078;41.932;25.554;2022-08-19T09:56:10;99075.69;;;36.53;28.61
43488;BME280;29078;41.932;25.554;2022-08-19T09:58:36;99085.69;;;36.62;27.83
43488;BME280;29078;41.932;25.554;2022-08-19T10:01:02;99078.44;;;36.73;27.90
43488;BME280;29078;41.932;25.554;2022-08-19T10:03:28;99077.28;;;36.93;26.57
43488;BME280;29078;41.932;25.554;2022-08-19T10:05:54;99077.53;;;37.07;27.13
43488;BME280;29078;41.932;25.554;2022-08-19T10:08:21;99065.78;;;37.10;26.71
43488;BME280;29078;41.932;25.554;2022-08-19T10:10:47;99071.34;;;37.33;26.28
43488;BME280;29078;41.932;25.554;2022-08-19T10:13:14;99061.47;;;37.55;26.26
43488;BME280;29078;41.932;25.554;2022-08-19T10:15:39;99065.38;;;37.77;25.71
43488;BME280;29078;41.932;25.554;2022-08-19T10:18:06;99068.00;;;37.93;25.42
43488;BME280;29078;41.932;25.554;2022-08-19T10:20:31;99064.66;;;38.06;25.92
43488;BME280;29078;41.932;25.554;2022-08-19T10:22:57;99065.88;;;38.09;25.65
43488;BME280;29078;41.932;25.554;2022-08-19T10:25:24;99069.09;;;38.14;26.21
43488;BME280;29078;41.932;25.554;2022-08-19T10:27:49;99065.63;;;38.18;25.62
43488;BME280;29078;41.932;25.554;2022-08-19T10:30:14;99072.34;;;38.20;24.35
43488;BME280;29078;41.932;25.554;2022-08-19T10:32:40;99068.94;;;38.30;24.61
43488;BME280;29078;41.932;25.554;2022-08-19T10:35:05;99058.25;;;38.59;23.24
43488;BME280;29078;41.932;25.554;2022-08-19T10:37:34;99048.59;;;38.72;25.64
43488;BME280;29078;41.932;25.554;2022-08-19T10:39:59;99047.03;;;38.74;24.46
43488;BME280;29078;41.932;25.554;2022-08-19T10:42:25;99052.75;;;38.92;24.22
43488;BME280;29078;41.932;25.554;2022-08-19T10:44:50;99055.53;;;38.96;23.31
43488;BME280;29078;41.932;25.554;2022-08-19T10:47:16;99048.50;;;39.02;23.59
43488;BME280;29078;41.932;25.554;2022-08-19T10:49:41;99049.75;;;39.08;24.38
43488;BME280;29078;41.932;25.554;2022-08-19T10:52:24;99051.06;;;39.21;21.98
43488;BME280;29078;41.932;25.554;2022-08-19T10:55:00;99034.06;;;39.16;24.80
43488;BME280;29078;41.932;25.554;2022-08-19T10:57:43;99034.75;;;39.05;23.44
43488;BME280;29078;41.932;25.554;2022-08-19T11:00:09;99037.13;;;39.07;23.83
43488;BME280;29078;41.932;25.554;2022-08-19T11:02:34;99027.84;;;39.29;23.93
43488;BME280;29078;41.932;25.554;2022-08-19T11:05:00;99029.06;;;39.32;22.04
43488;BME280;29078;41.932;25.554;2022-08-19T11:07:25;99014.97;;;39.44;22.09
43488;BME280;29078;41.932;25.554;2022-08-19T11:09:51;99020.97;;;39.53;22.34
43488;BME280;29078;41.932;25.554;2022-08-19T11:12:16;99011.41;;;39.44;22.78
43488;BME280;29078;41.932;25.554;2022-08-19T11:14:42;99023.75;;;39.09;22.43
43488;BME280;29078;41.932;25.554;2022-08-19T11:17:07;99026.31;;;38.91;22.75
43488;BME280;29078;41.932;25.554;2022-08-19T11:19:33;99022.47;;;39.03;22.78
43488;BME280;29078;41.932;25.554;2022-08-19T11:21:58;99016.53;;;39.01;23.09
43488;BME280;29078;41.932;25.554;2022-08-19T11:24:26;99011.59;;;39.21;22.90
43488;BME280;29078;41.932;25.554;2022-08-19T11:26:53;99013.41;;;39.47;21.85
43488;BME280;29078;41.932;25.554;2022-08-19T11:29:22;99006.47;;;39.67;23.10
43488;BME280;29078;41.932;25.554;2022-08-19T11:31:50;98997.91;;;39.90;22.40
43488;BME280;29078;41.932;25.554;2022-08-19T11:34:24;99002.59;;;39.82;21.95
43488;BME280;29078;41.932;25.554;2022-08-19T11:36:50;98993.25;;;40.05;21.85
43488;BME280;29078;41.932;25.554;2022-08-19T11:39:17;98994.81;;;39.98;22.08
43488;BME280;29078;41.932;25.554;2022-08-19T11:41:44;98992.19;;;39.58;23.02
43488;BME280;29078;41.932;25.554;2022-08-19T11:44:10;98982.78;;;39.69;22.39
43488;BME280;29078;41.932;25.554;2022-08-19T11:46:36;98985.31;;;39.96;21.94
43488;BME280;29078;41.932;25.554;2022-08-19T11:49:02;98982.66;;;40.17;22.13
43488;BME280;29078;41.932;25.554;2022-08-19T11:51:28;98987.06;;;40.32;22.12
43488;BME280;29078;41.932;25.554;2022-08-19T11:53:54;98975.97;;;40.18;22.14
43488;BME280;29078;41.932;25.554;2022-08-19T11:56:20;98972.22;;;39.86;21.72
43488;BME280;29078;41.932;25.554;2022-08-19T11:58:46;98975.84;;;39.97;22.22
43488;BME280;29078;41.932;25.554;2022-08-19T12:01:12;98981.91;;;40.31;22.28
43488;BME280;29078;41.932;25.554;2022-08-19T12:03:40;98982.31;;;40.26;21.61
43488;BME280;29078;41.932;25.554;2022-08-19T12:06:09;98975.59;;;40.34;20.73
43488;BME280;29078;41.932;25.554;2022-08-19T12:08:35;98966.41;;;40.12;20.50
43488;BME280;29078;41.932;25.554;2022-08-19T12:11:00;98964.41;;;40.06;21.17
43488;BME280;29078;41.932;25.554;2022-08-19T12:13:29;98966.84;;;40.14;22.13
43488;BME280;29078;41.932;25.554;2022-08-19T12:15:55;98962.19;;;40.36;21.77
43488;BME280;29078;41.932;25.554;2022-08-19T12:18:21;98955.91;;;40.60;20.37
43488;BME280;29078;41.932;25.554;2022-08-19T12:20:46;98962.66;;;40.67;21.24
43488;BME280;29078;41.932;25.554;2022-08-19T12:23:12;98955.94;;;40.75;21.77
43488;BME280;29078;41.932;25.554;2022-08-19T12:25:42;98961.81;;;40.45;20.64
43488;BME280;29078;41.932;25.554;2022-08-19T12:28:15;98960.09;;;40.12;21.50
43488;BME280;29078;41.932;25.554;2022-08-19T12:30:41;98962.81;;;40.01;21.76
43488;BME280;29078;41.932;25.554;2022-08-19T12:33:06;98959.16;;;39.79;22.18
43488;BME280;29078;41.932;25.554;2022-08-19T12:35:32;98955.00;;;39.48;22.07
43488;BME280;29078;41.932;25.554;2022-08-19T12:37:58;98959.22;;;39.35;22.08
43488;BME280;29078;41.932;25.554;2022-08-19T12:40:23;98953.28;;;39.29;22.63
43488;BME280;29078;41.932;25.554;2022-08-19T12:42:49;98951.44;;;39.44;22.40
43488;BME280;29078;41.932;25.554;2022-08-19T12:45:16;98949.84;;;39.43;21.48
43488;BME280;29078;41.932;25.554;2022-08-19T12:47:41;98956.84;;;39.33;22.55
43488;BME280;29078;41.932;25.554;2022-08-19T12:50:07;98952.84;;;39.24;21.90
43488;BME280;29078;41.932;25.554;2022-08-19T12:52:33;98942.19;;;39.22;22.04
43488;BME280;29078;41.932;25.554;2022-08-19T12:55:02;98944.47;;;39.64;21.89
43488;BME280;29078;41.932;25.554;2022-08-19T12:57:27;98941.88;;;39.93;21.77
43488;BME280;29078;41.932;25.554;2022-08-19T12:59:53;98942.69;;;40.08;21.20
43488;BME280;29078;41.932;25.554;2022-08-19T13:02:18;98932.88;;;40.17;21.36